createdAt,value
2022-09-28T00:00:35.085Z,98560.81
2022-09-28T00:03:01.678Z,98561.72
2022-09-28T00:05:28.278Z,98563.50
2022-09-28T00:07:55.893Z,98562.69
2022-09-28T00:10:23.132Z,98555.81
2022-09-28T00:12:52.101Z,98566.19
2022-09-28T00:15:18.737Z,98567.97
2022-09-28T00:17:45.285Z,98565.41
2022-09-28T00:20:12.493Z,98562.00
2022-09-28T00:22:39.615Z,98566.34
2022-09-28T00:25:07.024Z,98556.91
2022-09-28T00:27:33.528Z,98560.41
2022-09-28T00:30:00.237Z,98560.44
2022-09-28T00:32:27.991Z,98566.50
2022-09-28T00:34:55.103Z,98559.63
2022-09-28T00:37:21.658Z,98561.38
2022-09-28T00:39:48.870Z,98564.84
2022-09-28T00:42:19.434Z,98560.59
2022-09-28T00:50:26.772Z,98556.38
2022-09-28T00:55:54.865Z,98571.94
2022-09-28T00:58:27.623Z,98565.03
2022-09-28T01:00:56.816Z,98559.88
2022-09-28T01:03:24.214Z,98569.34
2022-09-28T01:05:53.019Z,98558.19
2022-09-28T01:08:21.785Z,98563.34
2022-09-28T01:10:49.271Z,98565.94
2022-09-28T01:13:17.679Z,98565.09
2022-09-28T01:15:56.681Z,98561.69
2022-09-28T01:18:35.668Z,98558.28
2022-09-28T01:24:00.294Z,98559.19
2022-09-28T01:32:03.556Z,98556.34
2022-09-28T01:34:39.770Z,98558.97
2022-09-28T01:37:09.989Z,98550.47
2022-09-28T01:39:39.557Z,98554.97
2022-09-28T01:42:14.774Z,98549.78
2022-09-28T01:44:45.909Z,98553.16
2022-09-28T01:47:15.541Z,98556.63
2022-09-28T01:49:47.628Z,98553.19
2022-09-28T01:52:21.734Z,98548.09
2022-09-28T02:00:10.603Z,98550.75
2022-09-28T02:02:51.072Z,98551.63
2022-09-28T02:05:24.892Z,98561.94
2022-09-28T02:08:00.278Z,98553.41
2022-09-28T02:10:35.432Z,98556.84
2022-09-28T02:13:09.200Z,98557.69
2022-09-28T02:15:50.760Z,98552.56
2022-09-28T02:18:17.495Z,98552.56
2022-09-28T02:21:11.066Z,98553.41
2022-09-28T02:23:41.513Z,98551.69
2022-09-28T02:26:14.078Z,98548.25
2022-09-28T02:28:40.789Z,98547.41
2022-09-28T02:31:07.449Z,98543.97
2022-09-28T02:33:38.569Z,98546.53
2022-09-28T02:36:05.510Z,98544.00
2022-09-28T02:38:32.593Z,98542.28
2022-09-28T02:47:05.320Z,98543.22
2022-09-28T02:55:19.032Z,98544.16
2022-09-28T03:00:32.671Z,98542.50
2022-09-28T03:11:13.963Z,98549.19
2022-09-28T03:13:40.947Z,98550.97
2022-09-28T03:18:46.686Z,98556.16
2022-09-28T03:21:14.470Z,98551.91
2022-09-28T03:23:42.058Z,98542.50
2022-09-28T03:26:11.337Z,98555.38
2022-09-28T03:28:38.101Z,98547.66
2022-09-28T03:31:04.991Z,98550.25
2022-09-28T03:33:31.561Z,98553.72
2022-09-28T03:35:58.098Z,98552.00
2022-09-28T03:38:24.699Z,98558.91
2022-09-28T03:40:54.686Z,98558.91
2022-09-28T03:43:22.129Z,98563.22
2022-09-28T03:45:54.085Z,98556.34
2022-09-28T03:48:31.353Z,98558.94
2022-09-28T03:51:01.134Z,98561.53
2022-09-28T03:53:29.652Z,98558.94
2022-09-28T03:56:01.725Z,98564.09
2022-09-28T03:58:28.572Z,98564.09
2022-09-28T04:00:55.222Z,98562.41
2022-09-28T04:03:21.869Z,98561.53
2022-09-28T04:05:51.452Z,98564.09
2022-09-28T04:08:18.625Z,98564.09
2022-09-28T04:10:45.786Z,98564.97
2022-09-28T04:13:12.366Z,98566.69
2022-09-28T04:15:38.864Z,98569.28
2022-09-28T04:18:10.825Z,98572.75
2022-09-28T04:20:37.846Z,98571.03
2022-09-28T04:23:04.385Z,98574.47
2022-09-28T04:25:30.925Z,98574.50
2022-09-28T04:28:17.383Z,98570.22
2022-09-28T04:30:46.111Z,98571.06
2022-09-28T04:33:12.641Z,98577.03
2022-09-28T04:35:39.163Z,98577.88
2022-09-28T04:38:05.943Z,98577.00
2022-09-28T04:40:32.568Z,98577.84
2022-09-28T04:42:59.212Z,98577.81
2022-09-28T04:45:27.017Z,98567.47
2022-09-28T04:47:53.947Z,98570.88
2022-09-28T04:50:20.618Z,98562.22
2022-09-28T04:52:47.213Z,98568.16
2022-09-28T04:55:14.444Z,98582.69
2022-09-28T04:57:41.186Z,98578.41
2022-09-28T05:00:09.074Z,98565.47
2022-09-28T05:02:35.791Z,98572.31
2022-09-28T05:05:02.369Z,98568.84
2022-09-28T05:07:28.990Z,98558.50
2022-09-28T05:09:55.950Z,98556.78
2022-09-28T05:12:22.597Z,98561.84
2022-09-28T05:14:49.146Z,98563.59
2022-09-28T05:17:15.689Z,98565.28
2022-09-28T05:19:42.238Z,98564.41
2022-09-28T05:22:13.974Z,98562.66
2022-09-28T05:24:41.027Z,98562.66
2022-09-28T05:27:07.656Z,98564.38
2022-09-28T05:29:34.292Z,98567.84
2022-09-28T05:32:01.682Z,98561.81
2022-09-28T05:34:28.893Z,98560.09
2022-09-28T05:36:55.709Z,98560.97
2022-09-28T05:39:22.333Z,98562.72
2022-09-28T05:41:49.440Z,98567.00
2022-09-28T05:44:16.177Z,98565.34
2022-09-28T05:46:42.773Z,98573.09
2022-09-28T05:49:09.351Z,98568.84
2022-09-28T05:51:35.901Z,98562.00
2022-09-28T05:54:06.023Z,98571.47
2022-09-28T05:56:33.371Z,98571.53
2022-09-28T05:58:59.909Z,98565.53
2022-09-28T06:01:26.640Z,98575.88
2022-09-28T06:03:53.234Z,98577.66
2022-09-28T06:06:19.776Z,98575.94
2022-09-28T06:08:48.409Z,98582.81
2022-09-28T06:11:15.024Z,98587.97
2022-09-28T06:13:41.631Z,98588.84
2022-09-28T06:16:08.589Z,98575.94
2022-09-28T06:18:35.443Z,98592.25
2022-09-28T06:21:02.826Z,98594.81
2022-09-28T06:23:29.367Z,98596.47
2022-09-28T06:25:55.892Z,98594.75
2022-09-28T06:28:22.508Z,98605.84
2022-09-28T06:30:49.136Z,98607.50
2022-09-28T06:33:16.349Z,98608.31
2022-09-28T06:35:43.145Z,98600.50
2022-09-28T06:38:09.991Z,98603.06
2022-09-28T06:40:36.698Z,98609.88
2022-09-28T06:43:10.681Z,98607.25
2022-09-28T06:45:38.225Z,98614.06
2022-09-28T06:48:05.658Z,98615.72
2022-09-28T06:50:37.495Z,98619.94
2022-09-28T06:53:06.807Z,98619.91
2022-09-28T06:55:33.780Z,98626.72
2022-09-28T06:58:03.731Z,98625.81
2022-09-28T07:00:34.051Z,98631.81
2022-09-28T07:03:03.172Z,98625.69
2022-09-28T07:05:30.964Z,98632.50
2022-09-28T07:07:57.715Z,98628.19
2022-09-28T07:10:27.913Z,98627.31
2022-09-28T07:12:55.335Z,98633.50
2022-09-28T07:15:22.055Z,98632.50
2022-09-28T07:17:59.789Z,98633.28
2022-09-28T07:20:30.166Z,98625.44
2022-09-28T07:23:09.355Z,98628.66
2022-09-28T07:25:45.666Z,98631.97
2022-09-28T07:28:12.441Z,98636.19
2022-09-28T07:30:39.233Z,98636.00
2022-09-28T07:33:08.133Z,98645.31
2022-09-28T07:35:34.672Z,98638.25
2022-09-28T07:38:03.881Z,98643.28
2022-09-28T07:40:51.641Z,98638.06
2022-09-28T07:43:20.835Z,98637.09
2022-09-28T07:45:48.777Z,98643.81
2022-09-28T07:48:16.369Z,98648.78
2022-09-28T07:50:51.667Z,98654.63
2022-09-28T07:53:20.226Z,98647.56
2022-09-28T07:55:51.844Z,98650.03
2022-09-28T07:58:19.450Z,98655.91
2022-09-28T08:00:48.209Z,98647.13
2022-09-28T08:03:17.767Z,98650.38
2022-09-28T08:05:44.476Z,98651.88
2022-09-28T08:08:11.046Z,98648.88
2022-09-28T08:10:38.048Z,98650.19
2022-09-28T08:13:07.532Z,98649.88
2022-09-28T08:15:36.965Z,98653.00
2022-09-28T08:18:04.795Z,98653.19
2022-09-28T08:20:52.282Z,98647.59
2022-09-28T08:23:19.985Z,98655.81
2022-09-28T08:25:49.147Z,98660.28
2022-09-28T08:28:18.209Z,98657.41
2022-09-28T08:30:45.938Z,98659.34
2022-09-28T08:33:13.797Z,98668.44
2022-09-28T08:35:42.079Z,98666.41
2022-09-28T08:38:09.279Z,98664.13
2022-09-28T08:40:44.915Z,98674.66
2022-09-28T08:43:51.248Z,98673.47
2022-09-28T08:46:25.025Z,98673.97
2022-09-28T08:51:42.319Z,98680.81
2022-09-28T08:54:31.969Z,98668.69
2022-09-28T08:57:05.656Z,98673.09
2022-09-28T08:59:51.381Z,98678.31
2022-09-28T09:02:39.741Z,98673.38
2022-09-28T09:05:14.757Z,98680.91
2022-09-28T09:10:46.355Z,98672.16
2022-09-28T09:18:42.432Z,98667.19
2022-09-28T09:26:39.726Z,98680.84
2022-09-28T09:48:45.205Z,98656.41
2022-09-28T09:51:20.837Z,98661.22
2022-09-28T09:54:01.863Z,98659.03
2022-09-28T09:56:38.537Z,98660.41
2022-09-28T09:59:12.225Z,98657.88
2022-09-28T10:01:41.448Z,98662.50
2022-09-28T10:04:19.954Z,98669.47
2022-09-28T10:06:49.802Z,98669.78
2022-09-28T10:09:23.622Z,98666.09
2022-09-28T10:11:51.950Z,98666.69
2022-09-28T10:14:22.185Z,98660.69
2022-09-28T10:16:51.776Z,98671.53
2022-09-28T10:19:21.455Z,98659.28
2022-09-28T10:21:51.930Z,98663.94
2022-09-28T10:24:27.309Z,98659.59
2022-09-28T10:26:55.518Z,98656.09
2022-09-28T10:29:25.967Z,98656.25
2022-09-28T10:31:54.393Z,98652.22
2022-09-28T10:34:30.346Z,98668.63
2022-09-28T10:37:06.652Z,98663.75
2022-09-28T10:42:20.402Z,98659.97
2022-09-28T10:44:54.876Z,98660.72
2022-09-28T10:47:24.138Z,98661.19
2022-09-28T10:49:54.081Z,98663.69
2022-09-28T10:52:31.860Z,98664.25
2022-09-28T10:54:58.529Z,98659.41
2022-09-28T10:57:41.029Z,98667.09
2022-09-28T11:00:39.317Z,98656.19
2022-09-28T11:03:06.762Z,98661.94
2022-09-28T11:05:33.634Z,98657.59
2022-09-28T11:08:05.642Z,98661.63
2022-09-28T11:10:33.229Z,98662.13
2022-09-28T11:13:00.459Z,98658.00
2022-09-28T11:15:31.261Z,98659.09
2022-09-28T11:18:19.842Z,98653.84
2022-09-28T11:20:46.580Z,98668.13
2022-09-28T11:23:31.198Z,98661.28
2022-09-28T11:26:02.290Z,98662.59
2022-09-28T11:28:32.798Z,98654.41
2022-09-28T11:31:00.227Z,98658.53
2022-09-28T11:53:25.012Z,98636.97
2022-09-28T11:58:49.539Z,98633.50
2022-09-28T12:04:03.808Z,98629.69
2022-09-28T12:06:38.266Z,98628.25
2022-09-28T12:09:14.741Z,98631.28
2022-09-28T12:11:45.587Z,98638.78
2022-09-28T12:14:25.139Z,98637.75
2022-09-28T12:17:20.287Z,98635.81
2022-09-28T12:19:55.410Z,98633.03
2022-09-28T12:25:13.481Z,98637.75
2022-09-28T12:28:06.699Z,98629.56
2022-09-28T12:30:40.599Z,98634.47
2022-09-28T12:33:13.167Z,98634.56
2022-09-28T12:53:19.389Z,98614.47
2022-09-28T12:56:04.058Z,98613.97
2022-09-28T13:06:47.224Z,98609.25
2022-09-28T13:12:14.061Z,98606.16
2022-09-28T13:17:54.625Z,98604.00
2022-09-28T13:25:42.436Z,98596.53
2022-09-28T13:28:15.559Z,98605.72
2022-09-28T13:30:45.301Z,98605.72
2022-09-28T13:33:35.929Z,98607.91
2022-09-28T13:36:23.624Z,98598.28
2022-09-28T13:38:50.160Z,98602.16
2022-09-28T13:41:20.135Z,98596.25
2022-09-28T13:49:45.567Z,98602.13
2022-09-28T13:52:16.859Z,98602.88
2022-09-28T13:57:31.495Z,98598.41
2022-09-28T14:00:10.666Z,98597.31
2022-09-28T14:16:48.291Z,98594.69
2022-09-28T14:19:26.670Z,98590.31
2022-09-28T14:32:58.320Z,98579.78
2022-09-28T14:35:31.443Z,98584.84
2022-09-28T14:38:23.428Z,98573.59
2022-09-28T14:41:11.334Z,98572.88
2022-09-28T14:46:37.853Z,98567.91
2022-09-28T14:54:21.095Z,98564.50
2022-09-28T14:59:43.515Z,98563.72
2022-09-28T15:04:52.458Z,98560.53
2022-09-28T15:07:23.252Z,98567.00
2022-09-28T15:09:52.173Z,98556.88
2022-09-28T15:12:23.964Z,98562.41
2022-09-28T15:14:56.267Z,98563.81
2022-09-28T15:17:27.164Z,98554.78
2022-09-28T15:20:22.081Z,98559.56
2022-09-28T15:22:50.914Z,98557.28
2022-09-28T15:25:22.009Z,98559.44
2022-09-28T15:27:54.783Z,98558.34
2022-09-28T15:30:32.082Z,98559.75
2022-09-28T15:33:20.324Z,98564.28
2022-09-28T15:35:54.469Z,98561.13
2022-09-28T15:38:21.255Z,98557.75
2022-09-28T15:40:48.511Z,98555.13
2022-09-28T15:43:33.250Z,98562.44
2022-09-28T15:46:13.490Z,98555.44
2022-09-28T15:48:52.004Z,98551.97
2022-09-28T15:51:21.437Z,98554.53
2022-09-28T15:57:00.037Z,98551.16
2022-09-28T16:07:27.552Z,98559.28
2022-09-28T16:15:28.862Z,98564.28
2022-09-28T16:18:01.494Z,98561.53
2022-09-28T16:36:39.894Z,98560.56
2022-09-28T16:39:06.540Z,98559.72
2022-09-28T16:41:33.053Z,98566.75
2022-09-28T16:44:02.240Z,98565.16
2022-09-28T16:46:36.344Z,98564.34
2022-09-28T16:49:05.412Z,98557.47
2022-09-28T16:51:32.969Z,98564.50
2022-09-28T16:54:33.829Z,98568.34
2022-09-28T16:57:01.211Z,98570.28
2022-09-28T16:59:28.689Z,98557.56
2022-09-28T17:01:56.704Z,98557.06
2022-09-28T17:04:25.480Z,98563.47
2022-09-28T17:06:54.238Z,98555.16
2022-09-28T17:09:22.291Z,98566.91
2022-09-28T17:11:56.139Z,98569.06
2022-09-28T17:14:23.670Z,98559.06
2022-09-28T17:17:13.738Z,98555.94
2022-09-28T17:19:40.381Z,98556.50
2022-09-28T17:22:08.104Z,98554.28
2022-09-28T17:24:35.191Z,98560.72
2022-09-28T17:27:03.302Z,98557.59
2022-09-28T17:29:30.347Z,98556.22
2022-09-28T17:31:56.874Z,98560.84
2022-09-28T17:34:23.950Z,98565.53
2022-09-28T17:36:50.522Z,98565.88
2022-09-28T17:39:19.281Z,98567.88
2022-09-28T17:41:46.091Z,98566.56
2022-09-28T17:44:16.278Z,98563.41
2022-09-28T17:46:47.420Z,98565.47
2022-09-28T17:49:14.732Z,98564.09
2022-09-28T17:51:41.338Z,98565.31
2022-09-28T17:54:08.701Z,98568.19
2022-09-28T17:56:36.179Z,98565.81
2022-09-28T17:59:06.280Z,98560.06
2022-09-28T18:01:35.012Z,98568.97
2022-09-28T18:04:04.144Z,98571.81
2022-09-28T18:06:33.565Z,98567.75
2022-09-28T18:09:00.677Z,98573.97
2022-09-28T18:11:28.145Z,98570.81
2022-09-28T18:13:54.709Z,98555.41
2022-09-28T18:16:22.764Z,98565.25
2022-09-28T18:18:49.335Z,98568.84
2022-09-28T18:21:16.022Z,98568.22
2022-09-28T18:23:42.650Z,98565.03
2022-09-28T18:26:12.197Z,98569.59
2022-09-28T18:28:39.254Z,98568.94
2022-09-28T18:31:09.532Z,98576.88
2022-09-28T18:33:36.662Z,98571.91
2022-09-28T18:36:04.783Z,98574.66
2022-09-28T18:38:31.368Z,98573.16
2022-09-28T18:40:57.955Z,98584.59
2022-09-28T18:43:24.504Z,98576.97
2022-09-28T18:45:51.024Z,98582.34
2022-09-28T18:48:17.615Z,98583.34
2022-09-28T18:50:44.156Z,98583.53
2022-09-28T18:53:11.995Z,98585.44
2022-09-28T18:55:41.043Z,98582.94
2022-09-28T18:58:10.415Z,98583.16
2022-09-28T19:00:40.438Z,98589.31
2022-09-28T19:03:08.156Z,98592.03
2022-09-28T19:05:35.133Z,98590.50
2022-09-28T19:08:02.289Z,98594.00
2022-09-28T19:10:28.916Z,98588.97
2022-09-28T19:12:55.438Z,98585.63
2022-09-28T19:15:22.828Z,98590.03
2022-09-28T19:17:50.365Z,98585.84
2022-09-28T19:20:17.481Z,98596.25
2022-09-28T19:22:44.464Z,98585.16
2022-09-28T19:25:11.618Z,98600.78
2022-09-28T19:27:38.144Z,98595.69
2022-09-28T19:30:05.238Z,98596.66
2022-09-28T19:32:31.754Z,98600.19
2022-09-28T19:34:58.608Z,98602.88
2022-09-28T19:37:25.126Z,98606.41
2022-09-28T19:39:51.724Z,98615.94
2022-09-28T19:42:18.266Z,98613.47
2022-09-28T19:44:46.498Z,98601.47
2022-09-28T19:47:13.382Z,98610.22
2022-09-28T19:49:40.699Z,98604.28
2022-09-28T19:52:16.513Z,98610.41
2022-09-28T19:54:45.884Z,98601.06
2022-09-28T19:57:14.529Z,98604.59
2022-09-28T19:59:41.285Z,98604.66
2022-09-28T20:02:10.414Z,98603.84
2022-09-28T20:04:36.979Z,98603.94
2022-09-28T20:07:04.339Z,98600.53
2022-09-28T20:09:31.941Z,98600.59
2022-09-28T20:11:58.483Z,98597.22
2022-09-28T20:14:26.015Z,98591.25
2022-09-28T20:16:57.246Z,98596.59
2022-09-28T20:19:23.850Z,98606.13
2022-09-28T20:21:50.884Z,98600.19
2022-09-28T20:24:17.724Z,98601.94
2022-09-28T20:26:46.063Z,98602.06
2022-09-28T20:29:13.192Z,98596.94
2022-09-28T20:31:40.344Z,98597.88
2022-09-28T20:34:07.289Z,98598.00
2022-09-28T20:36:34.062Z,98596.38
2022-09-28T20:39:02.857Z,98603.31
2022-09-28T20:41:34.752Z,98593.03
2022-09-28T20:44:05.093Z,98597.38
2022-09-28T20:46:33.021Z,98595.66
2022-09-28T20:48:59.909Z,98593.97
2022-09-28T20:51:26.521Z,98587.91
2022-09-28T20:53:55.202Z,98591.41
2022-09-28T20:56:26.922Z,98595.69
2022-09-28T20:58:54.482Z,98589.72
2022-09-28T21:03:58.726Z,98590.56
2022-09-28T21:06:28.147Z,98586.22
2022-09-28T21:08:54.833Z,98591.41
2022-09-28T21:11:23.439Z,98587.91
2022-09-28T21:13:55.131Z,98583.59
2022-09-28T21:16:21.671Z,98579.28
2022-09-28T21:18:48.755Z,98584.44
2022-09-28T21:21:17.327Z,98580.97
2022-09-28T21:23:44.996Z,98575.81
2022-09-28T21:26:15.936Z,98575.81
2022-09-28T21:28:44.687Z,98577.56
2022-09-28T21:31:12.076Z,98581.06
2022-09-28T21:33:38.652Z,98577.66
2022-09-28T21:36:07.175Z,98576.81
2022-09-28T21:38:34.740Z,98575.16
2022-09-28T21:41:01.521Z,98576.06
2022-09-28T21:43:30.257Z,98572.56
2022-09-28T21:45:58.217Z,98577.75
2022-09-28T21:48:26.898Z,98574.31
2022-09-28T21:50:57.007Z,98578.66
2022-09-28T21:53:24.683Z,98583.34
2022-09-28T21:55:53.103Z,98580.59
2022-09-28T21:58:23.272Z,98580.53
2022-09-28T22:00:58.174Z,98580.63
2022-09-28T22:03:25.823Z,98578.13
2022-09-28T22:05:52.474Z,98577.28
2022-09-28T22:08:19.868Z,98573.00
2022-09-28T22:10:57.254Z,98566.16
2022-09-28T22:13:23.768Z,98578.25
2022-09-28T22:15:54.171Z,98577.47
2022-09-28T22:18:20.844Z,98575.78
2022-09-28T22:20:47.472Z,98574.06
2022-09-28T22:23:14.042Z,98573.25
2022-09-28T22:25:40.643Z,98575.91
2022-09-28T22:28:07.192Z,98568.22
2022-09-28T22:30:34.620Z,98567.38
2022-09-28T22:33:02.467Z,98563.16
2022-09-28T22:35:29.017Z,98571.81
2022-09-28T22:37:55.547Z,98572.78
2022-09-28T22:40:22.749Z,98569.41
2022-09-28T22:42:49.583Z,98565.16
2022-09-28T22:45:16.125Z,98560.06
2022-09-28T22:47:42.681Z,98555.84
2022-09-28T22:50:09.370Z,98560.22
2022-09-28T22:52:35.893Z,98560.28
2022-09-28T22:55:02.404Z,98558.63
2022-09-28T22:57:29.540Z,98550.06
2022-09-28T22:59:56.036Z,98546.66
2022-09-28T23:02:22.812Z,98551.91
2022-09-28T23:04:49.548Z,98553.63
2022-09-28T23:07:16.073Z,98555.31
2022-09-28T23:09:42.593Z,98550.94
2022-09-28T23:12:09.143Z,98553.47
2022-09-28T23:14:35.666Z,98546.47
2022-09-28T23:17:02.150Z,98548.09
2022-09-28T23:19:28.674Z,98541.97
2022-09-28T23:21:55.253Z,98547.91
2022-09-28T23:24:21.778Z,98546.13
2022-09-28T23:26:48.340Z,98540.84
2022-09-28T23:29:14.886Z,98540.75
2022-09-28T23:31:41.512Z,98542.41
2022-09-28T23:34:10.232Z,98534.56
2022-09-28T23:36:36.742Z,98536.19
2022-09-28T23:39:03.618Z,98531.84
2022-09-28T23:41:30.377Z,98536.94
2022-09-28T23:43:57.054Z,98536.06
2022-09-28T23:46:24.385Z,98534.31
2022-09-28T23:48:51.248Z,98532.59
2022-09-28T23:51:18.139Z,98525.69
2022-09-28T23:53:45.241Z,98526.53
2022-09-28T23:56:12.662Z,98528.22
2022-09-28T23:58:39.194Z,98520.47
